Time;durP1;ratioP1;P1;durP2;ratioP2;P2;SDS_P1;SDS_P2;PMS_P1;PMS_P2;Temp;Humidity;BMP_temperature;BMP_pressure;BME280_temperature;BME280_humidity;BME280_pressure;Samples;Min_cycle;Max_cycle;Signal;HPM_P1;HPM_P2
2022/10/03 00:03:37;;;;;;;;;;;;;;;11.45;100.00;102071.25;20953137;28;19924;-61
2022/10/03 00:14:09;;;;;;;;;;;;;;;11.52;100.00;102077.84;20948607;28;19924;-61
2022/10/03 00:24:36;;;;;;;;;;;;;;;11.42;100.00;102087.06;20946073;28;20257;-61
2022/10/03 00:35:13;;;;;;;;;;;;;;;11.41;100.00;102090.59;20951952;28;19921;-61
2022/10/03 00:45:41;;;;;;;;;;;;;;;11.24;100.00;102107.97;20971188;28;19928;-60
2022/10/03 00:56:21;;;;;;;;;;;;;;;11.21;100.00;102121.16;20963622;28;19924;-61
2022/10/03 01:06:46;;;;;;;;;;;;;;;11.00;100.00;102135.19;20967172;28;19990;-60
2022/10/03 01:17:19;;;;;;;;;;;;;;;11.13;100.00;102131.97;20966630;28;19920;-61
2022/10/03 01:38:40;;;;;;;;;;;;;;;11.17;100.00;102145.72;20963181;28;19928;-61
2022/10/03 01:49:06;;;;;;;;;;;;;;;11.25;100.00;102159.28;20955714;28;19997;-61
2022/10/03 01:59:41;;;;;;;;;;;;;;;11.31;100.00;102165.06;20958243;28;19924;-61
2022/10/03 02:10:23;;;;;;;;;;;;;;;11.04;100.00;102171.53;20953955;28;19921;-61
2022/10/03 02:20:53;;;;;;;;;;;;;;;11.10;100.00;102184.28;20951354;28;19986;-61
2022/10/03 02:31:27;;;;;;;;;;;;;;;11.12;100.00;102187.69;20964260;28;20360;-60
2022/10/03 02:42:07;;;;;;;;;;;;;;;11.11;100.00;102185.97;20954264;28;20022;-61
2022/10/03 02:52:28;;;;;;;;;;;;;;;11.22;100.00;102188.94;20970746;28;19924;-60
2022/10/03 03:02:53;;;;;;;;;;;;;;;11.22;100.00;102188.94;20951567;28;19924;-61
2022/10/03 03:13:21;;;;;;;;;;;;;;;11.02;100.00;102204.69;20960415;28;20035;-61
2022/10/03 03:23:42;;;;;;;;;;;;;;;10.97;100.00;102213.63;20961909;28;19921;-61
2022/10/03 03:34:10;;;;;;;;;;;;;;;11.04;100.00;102210.69;20960592;28;19979;-61
2022/10/03 03:44:47;;;;;;;;;;;;;;;11.00;100.00;102213.47;20959986;28;19967;-61
2022/10/03 03:55:17;;;;;;;;;;;;;;;10.99;100.00;102217.84;20957412;28;20327;-61
2022/10/03 04:06:01;;;;;;;;;;;;;;;10.84;100.00;102223.72;20969355;28;19928;-61
2022/10/03 04:27:28;;;;;;;;;;;;;;;10.96;100.00;102243.25;20971049;28;19920;-61
2022/10/03 04:37:49;;;;;;;;;;;;;;;10.88;100.00;102256.63;20957668;28;19920;-61
2022/10/03 04:48:34;;;;;;;;;;;;;;;10.91;100.00;102266.94;20951695;28;19920;-62
2022/10/03 04:59:14;;;;;;;;;;;;;;;10.82;100.00;102262.06;20954578;28;19924;-60
2022/10/03 05:09:44;;;;;;;;;;;;;;;10.95;100.00;102272.84;20971161;28;19924;-61
2022/10/03 05:20:08;;;;;;;;;;;;;;;10.93;100.00;102280.72;20954892;28;19928;-61
2022/10/03 05:30:34;;;;;;;;;;;;;;;10.93;100.00;102285.94;20957242;28;19951;-60
2022/10/03 05:40:58;;;;;;;;;;;;;;;10.77;100.00;102290.09;20965800;28;19971;-61
2022/10/03 05:51:39;;;;;;;;;;;;;;;10.76;100.00;102298.88;20966611;28;19920;-60
2022/10/03 06:02:10;;;;;;;;;;;;;;;10.80;100.00;102289.97;20964903;28;20328;-62
2022/10/03 06:12:41;;;;;;;;;;;;;;;10.91;100.00;102303.44;20956610;28;19975;-61
2022/10/03 06:23:26;;;;;;;;;;;;;;;10.91;100.00;102313.88;20962244;28;19920;-62
2022/10/03 06:34:07;;;;;;;;;;;;;;;11.11;100.00;102311.25;20960199;28;19974;-61
2022/10/03 06:44:31;;;;;;;;;;;;;;;11.28;100.00;102313.97;20974887;28;19974;-61
2022/10/03 06:55:11;;;;;;;;;;;;;;;11.56;100.00;102320.59;20952890;28;19974;-61
2022/10/03 07:05:52;;;;;;;;;;;;;;;11.74;100.00;102313.66;20957318;28;19920;-61
2022/10/03 07:16:32;;;;;;;;;;;;;;;11.76;100.00;102328.34;20955199;28;19998;-61
2022/10/03 07:26:57;;;;;;;;;;;;;;;11.86;100.00;102345.28;20947700;28;19924;-61
2022/10/03 07:48:34;;;;;;;;;;;;;;;12.85;100.00;102359.63;20947862;28;19989;-60
2022/10/03 07:59:03;;;;;;;;;;;;;;;13.23;100.00;102374.31;20960884;28;19924;-59
2022/10/03 08:09:37;;;;;;;;;;;;;;;13.49;100.00;102381.69;20954715;28;19920;-60
2022/10/03 08:20:06;;;;;;;;;;;;;;;13.62;100.00;102394.06;20931186;28;19955;-63
2022/10/03 08:30:47;;;;;;;;;;;;;;;13.81;100.00;102401.81;20937374;28;20344;-63
2022/10/03 08:41:28;;;;;;;;;;;;;;;14.03;100.00;102410.22;20931632;28;20292;-64
2022/10/03 08:51:49;;;;;;;;;;;;;;;14.28;100.00;102415.88;20935760;28;19987;-63
2022/10/03 09:02:34;;;;;;;;;;;;;;;14.38;100.00;102417.09;20936943;28;19951;-64
2022/10/03 09:13:15;;;;;;;;;;;;;;;14.74;98.90;102419.34;20948148;28;19994;-62
2022/10/03 09:23:39;;;;;;;;;;;;;;;15.06;97.77;102418.34;20956319;28;20412;-64
2022/10/03 09:34:27;;;;;;;;;;;;;;;15.13;98.41;102413.59;20948397;28;20456;-63
2022/10/03 09:45:08;;;;;;;;;;;;;;;15.54;91.62;102411.09;20949296;28;19978;-63
2022/10/03 09:55:42;;;;;;;;;;;;;;;15.81;89.31;102417.31;20947268;28;19925;-64
2022/10/03 10:06:15;;;;;;;;;;;;;;;16.11;86.55;102418.06;20948113;28;19921;-64
2022/10/03 10:16:48;;;;;;;;;;;;;;;16.15;87.86;102416.94;20933050;28;19925;-64
2022/10/03 10:27:32;;;;;;;;;;;;;;;16.30;88.09;102415.16;20949929;28;20293;-63
2022/10/03 10:38:14;;;;;;;;;;;;;;;16.46;84.46;102398.31;20935641;28;20094;-63
2022/10/03 10:48:41;;;;;;;;;;;;;;;16.27;86.82;102412.69;20919375;28;19925;-63
2022/10/03 10:59:21;;;;;;;;;;;;;;;16.32;86.97;102410.63;20948614;28;19930;-64
2022/10/03 11:09:51;;;;;;;;;;;;;;;16.39;85.34;102409.31;20948101;28;19920;-64
2022/10/03 11:20:35;;;;;;;;;;;;;;;16.42;85.07;102401.25;20934249;28;19951;-63
2022/10/03 11:31:16;;;;;;;;;;;;;;;16.46;81.89;102401.75;20943719;28;20693;-63
2022/10/03 11:41:46;;;;;;;;;;;;;;;16.87;82.60;102393.81;20946049;28;19966;-63
2022/10/03 11:52:07;;;;;;;;;;;;;;;16.60;82.27;102404.34;20935865;28;20401;-63
2022/10/03 12:02:33;;;;;;;;;;;;;;;17.04;79.08;102397.03;20963684;28;19924;-64
2022/10/03 12:12:56;;;;;;;;;;;;;;;17.21;77.81;102388.84;20941058;28;19928;-63
2022/10/03 12:23:20;;;;;;;;;;;;;;;17.04;79.31;102388.28;20945252;28;20487;-64
2022/10/03 12:33:45;;;;;;;;;;;;;;;17.00;79.22;102385.03;20941364;28;20308;-64
2022/10/03 12:44:27;;;;;;;;;;;;;;;17.43;76.71;102378.59;20966920;28;19932;-64
2022/10/03 12:55:08;;;;;;;;;;;;;;;17.50;73.03;102385.13;20993845;28;20598;-63
2022/10/03 13:05:54;;;;;;;;;;;;;;;18.03;72.42;102382.25;20920334;28;20253;-63
2022/10/03 13:16:33;;;;;;;;;;;;;;;17.45;73.42;102381.97;20959438;28;19924;-63
2022/10/03 13:26:55;;;;;;;;;;;;;;;17.20;77.01;102384.53;20970284;28;19925;-64
2022/10/03 13:37:39;;;;;;;;;;;;;;;17.10;78.87;102380.81;20950448;28;20713;-64
2022/10/03 13:48:06;;;;;;;;;;;;;;;17.39;76.86;102377.09;20952573;28;19967;-64
2022/10/03 13:58:29;;;;;;;;;;;;;;;17.35;76.47;102365.06;20936380;28;19924;-64
2022/10/03 14:09:26;;;;;;;;;;;;;;;17.30;77.75;102372.47;20990447;28;19943;-62
2022/10/03 14:20:06;;;;;;;;;;;;;;;17.37;77.02;102363.16;20893924;28;20354;-64
2022/10/03 14:30:30;;;;;;;;;;;;;;;17.07;76.18;102359.94;20943734;28;19990;-64
2022/10/03 14:41:01;;;;;;;;;;;;;;;17.06;77.35;102352.16;20941251;28;19928;-64
2022/10/03 14:51:29;;;;;;;;;;;;;;;17.35;76.65;102349.25;20941471;28;19986;-64
2022/10/03 15:01:54;;;;;;;;;;;;;;;17.32;77.81;102336.25;20937249;28;19960;-64
2022/10/03 15:12:21;;;;;;;;;;;;;;;17.12;77.30;102331.50;20956334;28;19920;-64
2022/10/03 15:22:48;;;;;;;;;;;;;;;16.77;77.31;102330.38;20942777;28;20473;-64
2022/10/03 15:33:15;;;;;;;;;;;;;;;16.79;78.93;102328.47;20935255;28;19947;-62
2022/10/03 15:43:49;;;;;;;;;;;;;;;16.86;76.99;102319.25;20938740;28;20519;-62
2022/10/03 15:54:14;;;;;;;;;;;;;;;16.97;79.17;102322.00;20934979;28;19924;-62
2022/10/03 16:04:40;;;;;;;;;;;;;;;16.45;78.53;102317.63;20934606;28;20309;-62
2022/10/03 16:15:13;;;;;;;;;;;;;;;16.32;80.26;102313.25;20945880;28;19925;-63
2022/10/03 16:25:42;;;;;;;;;;;;;;;16.10;81.47;102313.75;20944057;28;19947;-62
2022/10/03 16:36:05;;;;;;;;;;;;;;;15.99;82.28;102316.22;20929714;28;20042;-62
2022/10/03 16:46:30;;;;;;;;;;;;;;;15.77;84.04;102312.41;20937656;28;19935;-61
2022/10/03 16:56:56;;;;;;;;;;;;;;;15.65;85.17;102313.19;20940473;28;19924;-62
2022/10/03 17:07:22;;;;;;;;;;;;;;;15.43;85.81;102306.69;20940403;28;19932;-62
2022/10/03 17:18:02;;;;;;;;;;;;;;;15.43;87.93;102306.69;20939377;28;19924;-61
2022/10/03 17:28:36;;;;;;;;;;;;;;;15.02;90.56;102301.25;20964612;28;19970;-62
2022/10/03 17:39:07;;;;;;;;;;;;;;;15.04;90.89;102293.31;20945815;28;19928;-63
2022/10/03 17:49:39;;;;;;;;;;;;;;;14.70;94.28;102294.44;20952668;28;20501;-62
2022/10/03 18:00:06;;;;;;;;;;;;;;;14.48;94.58;102293.16;20947761;28;20569;-62
2022/10/03 18:10:30;;;;;;;;;;;;;;;14.24;98.04;102293.69;20942092;28;19932;-62
2022/10/03 18:21:03;;;;;;;;;;;;;;;13.94;99.35;102284.88;20947572;28;19920;-66
2022/10/03 18:31:25;;;;;;;;;;;;;;;13.77;100.00;102279.72;20961884;28;19966;-66
2022/10/03 18:41:49;;;;;;;;;;;;;;;13.55;100.00;102285.28;20970183;28;19944;-66
2022/10/03 18:52:18;;;;;;;;;;;;;;;13.40;100.00;102287.84;20958392;28;19921;-67
2022/10/03 19:02:43;;;;;;;;;;;;;;;13.16;100.00;102294.38;20962753;28;20451;-66
2022/10/03 19:13:04;;;;;;;;;;;;;;;12.97;100.00;102277.06;20960593;28;19978;-67
2022/10/03 19:23:37;;;;;;;;;;;;;;;13.04;100.00;102274.06;20980376;28;19924;-66
2022/10/03 19:34:19;;;;;;;;;;;;;;;12.89;100.00;102261.75;20957056;28;19928;-67
2022/10/03 19:44:40;;;;;;;;;;;;;;;12.77;100.00;102259.75;20956162;28;20300;-67
2022/10/03 19:55:31;;;;;;;;;;;;;;;12.80;100.00;102264.84;20947812;28;20591;-66
2022/10/03 20:06:11;;;;;;;;;;;;;;;12.82;100.00;102262.94;20961661;28;19921;-66
2022/10/03 20:16:39;;;;;;;;;;;;;;;12.79;100.00;102250.06;20947086;28;19928;-66
2022/10/03 20:27:16;;;;;;;;;;;;;;;12.81;100.00;102240.31;20956455;28;19996;-67
2022/10/03 20:37:38;;;;;;;;;;;;;;;12.84;100.00;102247.19;20955777;28;19920;-66
2022/10/03 20:48:02;;;;;;;;;;;;;;;12.78;100.00;102250.97;20956128;28;20331;-67
2022/10/03 20:58:34;;;;;;;;;;;;;;;12.76;100.00;102241.50;20950345;28;19920;-66
2022/10/03 21:08:57;;;;;;;;;;;;;;;12.70;100.00;102242.66;20955334;28;19982;-66
2022/10/03 21:19:21;;;;;;;;;;;;;;;12.62;100.00;102242.19;20961277;28;20373;-66
2022/10/03 21:30:01;;;;;;;;;;;;;;;12.50;100.00;102234.13;20959915;28;19924;-66
2022/10/03 21:40:45;;;;;;;;;;;;;;;12.42;100.00;102222.34;20957491;28;19966;-67
2022/10/03 21:51:16;;;;;;;;;;;;;;;12.32;100.00;102223.72;20977765;28;19978;-66
2022/10/03 22:01:47;;;;;;;;;;;;;;;12.18;100.00;102226.19;20973637;28;19920;-66
2022/10/03 22:12:09;;;;;;;;;;;;;;;12.30;100.00;102215.09;20960052;28;19955;-66
2022/10/03 22:22:54;;;;;;;;;;;;;;;12.41;100.00;102218.91;20965115;28;20059;-66
2022/10/03 22:33:21;;;;;;;;;;;;;;;12.21;100.00;102207.72;20957705;28;20274;-67
2022/10/03 22:43:43;;;;;;;;;;;;;;;12.30;100.00;102200.25;20950725;28;20497;-67
2022/10/03 22:54:09;;;;;;;;;;;;;;;12.51;100.00;102196.56;20959949;28;19966;-68
2022/10/03 23:04:33;;;;;;;;;;;;;;;12.36;100.00;102172.97;20954862;28;19920;-67
2022/10/03 23:14:57;;;;;;;;;;;;;;;12.32;100.00;102163.59;20961656;28;19967;-66
2022/10/03 23:25:25;;;;;;;;;;;;;;;12.32;100.00;102166.19;20960792;28;19924;-64
2022/10/03 23:35:47;;;;;;;;;;;;;;;12.20;100.00;102151.13;20958442;28;19924;-66
2022/10/03 23:46:11;;;;;;;;;;;;;;;12.28;100.00;102148.97;20957151;28;20711;-65
2022/10/03 23:56:43;;;;;;;;;;;;;;;12.37;100.00;102143.28;20953195;28;20511;-65
